createdAt,value
2023-01-08T00:00:03.983Z,9.80
2023-01-08T00:02:30.941Z,9.80
2023-01-08T00:04:57.778Z,9.80
2023-01-08T00:07:24.611Z,9.80
2023-01-08T00:09:52.181Z,9.80
2023-01-08T00:12:19.506Z,9.90
2023-01-08T00:14:46.305Z,9.80
2023-01-08T00:17:13.797Z,9.80
2023-01-08T00:19:42.033Z,9.80
2023-01-08T00:22:08.879Z,9.80
2023-01-08T00:24:35.766Z,9.90
2023-01-08T00:27:03.888Z,9.90
2023-01-08T00:29:31.183Z,9.80
2023-01-08T00:31:58.102Z,9.80
2023-01-08T00:34:28.053Z,9.80
2023-01-08T00:36:54.929Z,9.80
2023-01-08T00:39:22.007Z,9.80
2023-01-08T00:41:49.810Z,9.80
2023-01-08T00:44:16.637Z,9.90
2023-01-08T00:46:43.485Z,9.80
2023-01-08T00:49:10.551Z,9.80
2023-01-08T00:51:37.428Z,9.80
2023-01-08T00:54:04.441Z,9.80
2023-01-08T00:56:31.395Z,9.80
2023-01-08T00:58:58.249Z,9.80
2023-01-08T01:01:25.395Z,9.80
2023-01-08T01:03:52.337Z,9.80
2023-01-08T01:06:19.489Z,9.80
2023-01-08T01:08:46.324Z,9.80
2023-01-08T01:11:24.786Z,9.80
2023-01-08T01:13:52.400Z,9.80
2023-01-08T01:16:19.486Z,9.80
2023-01-08T01:18:46.530Z,9.80
2023-01-08T01:21:20.262Z,9.80
2023-01-08T01:23:47.144Z,9.90
2023-01-08T01:26:22.390Z,9.90
2023-01-08T01:28:53.967Z,9.80
2023-01-08T01:31:21.759Z,9.80
2023-01-08T01:33:49.095Z,9.80
2023-01-08T01:36:17.021Z,9.80
2023-01-08T01:38:45.487Z,9.80
2023-01-08T01:41:24.997Z,9.80
2023-01-08T01:43:53.104Z,9.80
2023-01-08T01:46:40.421Z,9.80
2023-01-08T01:49:22.973Z,9.70
2023-01-08T01:51:54.004Z,9.60
2023-01-08T01:54:21.501Z,9.50
2023-01-08T01:56:48.951Z,9.40
2023-01-08T01:59:16.592Z,9.30
2023-01-08T02:01:43.981Z,9.20
2023-01-08T02:04:13.050Z,9.10
2023-01-08T02:06:55.632Z,9.00
2023-01-08T02:09:50.882Z,9.00
2023-01-08T02:12:32.718Z,8.90
2023-01-08T02:15:22.179Z,8.80
2023-01-08T02:18:09.543Z,8.80
2023-01-08T02:20:40.380Z,8.80
2023-01-08T02:23:25.262Z,8.80
2023-01-08T02:26:18.230Z,8.80
2023-01-08T02:28:57.557Z,8.80
2023-01-08T02:31:27.292Z,8.70
2023-01-08T02:33:54.343Z,8.70
2023-01-08T02:36:24.349Z,8.70
2023-01-08T02:39:01.012Z,8.60
2023-01-08T02:41:52.497Z,8.70
2023-01-08T02:44:47.409Z,8.70
2023-01-08T02:47:36.413Z,8.70
2023-01-08T02:50:12.744Z,8.70
2023-01-08T02:53:01.483Z,8.70
2023-01-08T02:55:29.110Z,8.70
2023-01-08T02:57:57.684Z,8.60
2023-01-08T03:00:25.037Z,8.70
2023-01-08T03:03:02.465Z,8.70
2023-01-08T03:05:29.359Z,8.60
2023-01-08T03:07:56.405Z,8.60
2023-01-08T03:10:28.608Z,8.60
2023-01-08T03:13:18.144Z,8.70
2023-01-08T03:15:51.470Z,8.70
2023-01-08T03:18:34.129Z,8.70
2023-01-08T03:21:02.628Z,8.80
2023-01-08T03:23:33.603Z,8.70
2023-01-08T03:26:03.405Z,8.80
2023-01-08T03:28:35.778Z,8.80
2023-01-08T03:31:03.177Z,8.90
2023-01-08T03:33:32.058Z,8.90
2023-01-08T03:36:03.636Z,8.90
2023-01-08T03:38:38.141Z,8.90
2023-01-08T03:41:09.768Z,9.00
2023-01-08T03:43:36.808Z,9.00
2023-01-08T03:46:09.546Z,9.00
2023-01-08T03:48:37.784Z,9.00
2023-01-08T03:51:08.793Z,9.10
2023-01-08T03:53:35.680Z,9.10
2023-01-08T03:56:02.625Z,9.10
2023-01-08T03:58:29.583Z,9.00
2023-01-08T04:00:56.384Z,9.10
2023-01-08T04:03:24.680Z,9.10
2023-01-08T04:05:51.587Z,9.00
2023-01-08T04:08:18.447Z,9.00
2023-01-08T04:10:45.276Z,9.00
2023-01-08T04:13:12.109Z,9.10
2023-01-08T04:15:38.991Z,9.00
2023-01-08T04:18:05.826Z,9.00
2023-01-08T04:20:32.719Z,9.00
2023-01-08T04:22:59.518Z,9.00
2023-01-08T04:25:26.331Z,8.90
2023-01-08T04:27:53.123Z,8.90
2023-01-08T04:30:19.982Z,8.90
2023-01-08T04:32:46.769Z,8.90
2023-01-08T04:35:13.639Z,9.00
2023-01-08T04:37:40.472Z,8.90
2023-01-08T04:40:07.799Z,8.90
2023-01-08T04:42:34.559Z,8.80
2023-01-08T04:45:01.396Z,8.90
2023-01-08T04:47:28.240Z,8.90
2023-01-08T04:49:55.129Z,8.90
2023-01-08T04:52:22.056Z,8.80
2023-01-08T04:54:48.858Z,8.80
2023-01-08T04:57:15.702Z,8.80
2023-01-08T04:59:42.541Z,8.80
2023-01-08T05:02:09.587Z,8.80
2023-01-08T05:04:36.440Z,8.80
2023-01-08T05:07:04.668Z,8.80
2023-01-08T05:09:31.637Z,8.80
2023-01-08T05:11:58.453Z,8.80
2023-01-08T05:14:25.263Z,8.80
2023-01-08T05:16:52.087Z,8.80
2023-01-08T05:19:18.866Z,8.90
2023-01-08T05:21:45.744Z,8.90
2023-01-08T05:24:12.653Z,8.90
2023-01-08T05:26:39.527Z,8.80
2023-01-08T05:29:06.364Z,8.80
2023-01-08T05:31:33.276Z,8.70
2023-01-08T05:34:00.858Z,8.70
2023-01-08T05:36:27.799Z,8.70
2023-01-08T05:38:55.462Z,8.60
2023-01-08T05:41:22.428Z,8.60
2023-01-08T05:43:49.262Z,8.70
2023-01-08T05:46:16.149Z,8.50
2023-01-08T05:48:43.247Z,8.50
2023-01-08T05:51:10.119Z,8.50
2023-01-08T05:53:37.020Z,8.40
2023-01-08T05:56:10.116Z,8.50
2023-01-08T05:58:37.807Z,8.40
2023-01-08T06:01:05.945Z,8.30
2023-01-08T06:03:32.772Z,8.40
2023-01-08T06:06:04.583Z,8.30
2023-01-08T06:08:31.921Z,8.30
2023-01-08T06:11:04.241Z,8.40
2023-01-08T06:13:31.077Z,8.30
2023-01-08T06:16:02.003Z,8.40
2023-01-08T06:18:30.068Z,8.30
2023-01-08T06:20:57.038Z,8.30
2023-01-08T06:23:23.798Z,8.30
2023-01-08T06:25:58.518Z,8.20
2023-01-08T06:28:26.057Z,8.20
2023-01-08T06:30:53.079Z,8.30
2023-01-08T06:33:21.632Z,8.20
2023-01-08T06:35:48.708Z,8.20
2023-01-08T06:38:15.711Z,8.20
2023-01-08T06:40:42.519Z,8.20
2023-01-08T06:43:09.353Z,8.20
2023-01-08T06:45:36.177Z,8.30
2023-01-08T06:48:05.456Z,8.20
2023-01-08T06:50:33.741Z,8.10
2023-01-08T06:53:00.671Z,8.20
2023-01-08T06:55:27.919Z,8.20
2023-01-08T06:57:55.567Z,8.20
2023-01-08T07:00:23.929Z,8.20
2023-01-08T07:02:51.947Z,8.20
2023-01-08T07:05:19.210Z,8.20
2023-01-08T07:07:46.211Z,8.20
2023-01-08T07:10:13.319Z,8.20
2023-01-08T07:12:40.405Z,8.20
2023-01-08T07:15:08.060Z,8.20
2023-01-08T07:17:35.213Z,8.10
2023-01-08T07:20:04.050Z,8.20
2023-01-08T07:22:30.949Z,8.20
2023-01-08T07:24:57.784Z,8.20
2023-01-08T07:27:24.757Z,8.20
2023-01-08T07:29:51.594Z,8.20
2023-01-08T07:32:18.432Z,8.20
2023-01-08T07:34:45.210Z,8.00
2023-01-08T07:37:12.032Z,8.10
2023-01-08T07:39:38.781Z,8.20
2023-01-08T07:42:05.629Z,8.10
2023-01-08T07:44:32.495Z,8.10
2023-01-08T07:46:59.329Z,8.10
2023-01-08T07:49:26.144Z,8.10
2023-01-08T07:51:52.926Z,8.10
2023-01-08T07:54:19.825Z,8.10
2023-01-08T07:56:46.737Z,8.10
2023-01-08T07:59:13.598Z,8.10
2023-01-08T08:01:40.517Z,8.00
2023-01-08T08:04:07.357Z,8.00
2023-01-08T08:06:34.161Z,8.00
2023-01-08T08:09:01.031Z,8.00
2023-01-08T08:11:28.016Z,7.90
2023-01-08T08:13:56.741Z,7.90
2023-01-08T08:16:23.928Z,7.90
2023-01-08T08:18:50.849Z,7.90
2023-01-08T08:21:17.762Z,7.90
2023-01-08T08:23:44.596Z,7.90
2023-01-08T08:26:11.529Z,7.80
2023-01-08T08:28:38.416Z,7.80
2023-01-08T08:31:05.443Z,7.80
2023-01-08T08:33:32.382Z,7.70
2023-01-08T08:35:59.235Z,7.70
2023-01-08T08:38:26.534Z,7.70
2023-01-08T08:40:53.387Z,7.60
2023-01-08T08:43:20.412Z,7.70
2023-01-08T08:45:47.348Z,7.70
2023-01-08T08:48:15.997Z,7.70
2023-01-08T08:50:43.244Z,7.60
2023-01-08T08:53:10.282Z,7.60
2023-01-08T08:55:37.121Z,7.70
2023-01-08T08:58:11.482Z,7.70
2023-01-08T09:00:42.505Z,7.70
2023-01-08T09:03:18.413Z,7.70
2023-01-08T09:05:45.552Z,7.70
2023-01-08T09:08:12.902Z,7.70
2023-01-08T09:10:42.381Z,7.60
2023-01-08T09:13:15.654Z,7.60
2023-01-08T09:15:42.842Z,7.70
2023-01-08T09:18:10.124Z,7.70
2023-01-08T09:20:36.971Z,7.70
2023-01-08T09:23:04.232Z,7.70
2023-01-08T09:25:31.559Z,7.80
2023-01-08T09:28:03.820Z,7.80
2023-01-08T09:30:33.333Z,7.70
2023-01-08T09:33:03.081Z,7.80
2023-01-08T09:35:33.669Z,7.80
2023-01-08T09:38:00.623Z,7.90
2023-01-08T09:40:44.711Z,7.80
2023-01-08T09:43:18.146Z,7.90
2023-01-08T09:45:48.661Z,8.00
2023-01-08T09:48:18.733Z,8.00
2023-01-08T09:50:47.016Z,8.10
2023-01-08T09:53:16.286Z,8.00
2023-01-08T09:55:43.667Z,8.00
2023-01-08T09:58:35.371Z,8.10
2023-01-08T10:01:03.531Z,8.10
2023-01-08T10:03:39.270Z,8.10
2023-01-08T10:06:11.134Z,8.10
2023-01-08T10:08:38.444Z,8.10
2023-01-08T10:11:06.660Z,8.10
2023-01-08T10:13:36.970Z,8.10
2023-01-08T10:16:08.104Z,8.10
2023-01-08T10:18:35.717Z,8.20
2023-01-08T10:21:02.703Z,8.20
2023-01-08T10:23:29.740Z,8.20
2023-01-08T10:26:02.267Z,8.30
2023-01-08T10:28:38.000Z,8.20
2023-01-08T10:31:16.448Z,8.30
2023-01-08T10:33:49.957Z,8.30
2023-01-08T10:36:24.346Z,8.30
2023-01-08T10:39:02.210Z,8.30
2023-01-08T10:41:29.972Z,8.30
2023-01-08T10:44:00.993Z,8.30
2023-01-08T10:46:31.882Z,8.40
2023-01-08T10:49:01.336Z,8.40
2023-01-08T10:51:30.592Z,8.40
2023-01-08T10:54:15.479Z,8.40
2023-01-08T10:56:44.389Z,8.40
2023-01-08T10:59:22.973Z,8.40
2023-01-08T11:01:52.303Z,8.40
2023-01-08T11:04:29.266Z,8.50
2023-01-08T11:06:59.743Z,8.50
2023-01-08T11:09:37.183Z,8.50
2023-01-08T11:12:04.503Z,8.50
2023-01-08T11:14:36.672Z,8.50
2023-01-08T11:17:11.619Z,8.50
2023-01-08T11:19:39.930Z,8.60
2023-01-08T11:22:19.041Z,8.60
2023-01-08T11:24:47.281Z,8.60
2023-01-08T11:27:34.858Z,8.60
2023-01-08T11:30:12.538Z,8.70
2023-01-08T11:32:56.386Z,8.70
2023-01-08T11:35:28.454Z,8.70
2023-01-08T11:38:01.820Z,8.80
2023-01-08T11:40:40.044Z,8.80
2023-01-08T11:43:18.465Z,8.80
2023-01-08T11:46:06.633Z,8.90
2023-01-08T11:48:48.474Z,9.00
2023-01-08T11:51:30.322Z,9.10
2023-01-08T11:54:22.210Z,9.10
2023-01-08T11:57:07.099Z,9.10
2023-01-08T11:59:58.085Z,9.20
2023-01-08T12:02:52.887Z,9.20
2023-01-08T12:05:24.852Z,9.30
2023-01-08T12:08:16.884Z,9.40
2023-01-08T12:11:02.866Z,9.40
2023-01-08T12:13:51.046Z,9.30
2023-01-08T12:16:58.002Z,9.20
2023-01-08T12:19:34.037Z,9.30
2023-01-08T12:22:28.151Z,9.30
2023-01-08T12:25:16.924Z,9.30
2023-01-08T12:27:58.904Z,9.40
2023-01-08T12:30:38.573Z,9.40
2023-01-08T12:33:33.008Z,9.40
2023-01-08T12:36:05.453Z,9.40
2023-01-08T12:38:44.939Z,9.40
2023-01-08T12:41:14.082Z,9.50
2023-01-08T12:43:49.002Z,9.50
2023-01-08T12:46:17.250Z,9.50
2023-01-08T12:48:47.080Z,9.50
2023-01-08T12:51:39.479Z,9.40
2023-01-08T12:54:24.373Z,9.40
2023-01-08T12:57:07.893Z,9.30
2023-01-08T12:59:37.790Z,9.40
2023-01-08T13:02:33.579Z,9.40
2023-01-08T13:05:28.834Z,9.40
2023-01-08T13:08:26.599Z,9.40
2023-01-08T13:10:57.134Z,9.40
2023-01-08T13:13:45.340Z,9.40
2023-01-08T13:16:12.162Z,9.40
2023-01-08T13:18:39.428Z,9.40
2023-01-08T13:21:09.578Z,9.40
2023-01-08T13:23:38.202Z,9.40
2023-01-08T13:26:06.683Z,9.40
2023-01-08T13:29:06.965Z,9.40
2023-01-08T13:31:41.267Z,9.40
2023-01-08T13:34:33.651Z,9.40
2023-01-08T13:37:00.945Z,9.30
2023-01-08T13:39:38.853Z,9.30
2023-01-08T13:42:13.714Z,9.40
2023-01-08T13:44:47.301Z,9.30
2023-01-08T13:47:33.794Z,9.30
2023-01-08T13:50:05.981Z,9.30
2023-01-08T13:52:56.943Z,9.30
2023-01-08T13:55:33.863Z,9.30
2023-01-08T13:58:13.303Z,9.30
2023-01-08T14:00:43.227Z,9.20
2023-01-08T14:03:37.544Z,9.10
2023-01-08T14:06:19.617Z,9.20
2023-01-08T14:09:00.967Z,9.10
2023-01-08T14:11:39.597Z,9.10
2023-01-08T14:14:17.318Z,9.00
2023-01-08T14:16:45.133Z,9.00
2023-01-08T14:19:17.588Z,9.10
2023-01-08T14:22:01.566Z,9.10
2023-01-08T14:24:28.597Z,9.10
2023-01-08T14:26:58.342Z,9.10
2023-01-08T14:29:29.606Z,9.10
2023-01-08T14:31:59.036Z,9.10
2023-01-08T14:34:31.705Z,9.00
2023-01-08T14:36:58.618Z,9.10
2023-01-08T14:39:26.780Z,9.00
2023-01-08T14:42:13.722Z,9.00
2023-01-08T14:44:44.933Z,9.00
2023-01-08T14:47:19.521Z,9.00
2023-01-08T14:49:53.710Z,9.00
2023-01-08T14:52:21.260Z,9.00
2023-01-08T14:54:53.354Z,9.00
2023-01-08T14:57:22.151Z,9.10
2023-01-08T14:59:56.835Z,9.10
2023-01-08T15:02:30.307Z,9.20
2023-01-08T15:05:18.527Z,9.10
2023-01-08T15:07:56.002Z,9.00
2023-01-08T15:10:34.008Z,9.00
2023-01-08T15:13:05.094Z,8.90
2023-01-08T15:15:32.738Z,8.90
2023-01-08T15:18:00.003Z,8.80
2023-01-08T15:20:33.753Z,8.80
2023-01-08T15:23:00.755Z,8.70
2023-01-08T15:25:29.807Z,8.60
2023-01-08T15:28:07.775Z,8.70
2023-01-08T15:30:43.737Z,8.60
2023-01-08T15:33:19.556Z,8.60
2023-01-08T15:35:46.935Z,8.50
2023-01-08T15:38:33.832Z,8.50
2023-01-08T15:41:00.719Z,8.40
2023-01-08T15:43:27.645Z,8.40
2023-01-08T15:45:54.657Z,8.40
2023-01-08T15:48:21.667Z,8.30
2023-01-08T15:50:48.826Z,8.30
2023-01-08T15:53:18.626Z,8.30
2023-01-08T15:55:46.907Z,8.30
2023-01-08T15:58:15.356Z,8.10
2023-01-08T16:00:45.013Z,8.20
2023-01-08T16:03:13.540Z,8.10
2023-01-08T16:05:40.565Z,8.20
2023-01-08T16:08:07.601Z,8.10
2023-01-08T16:10:34.529Z,8.00
2023-01-08T16:13:01.743Z,8.10
2023-01-08T16:15:30.771Z,8.00
2023-01-08T16:17:59.969Z,8.00
2023-01-08T16:20:29.521Z,8.20
2023-01-08T16:23:16.666Z,8.00
2023-01-08T16:28:52.476Z,7.90
2023-01-08T16:31:19.466Z,7.80
2023-01-08T16:33:46.420Z,7.80
2023-01-08T16:36:13.412Z,7.70
2023-01-08T16:38:40.238Z,7.70
2023-01-08T16:41:07.185Z,7.70
2023-01-08T16:43:40.915Z,7.60
2023-01-08T16:46:15.160Z,7.70
2023-01-08T16:48:43.075Z,7.50
2023-01-08T16:51:10.531Z,7.50
2023-01-08T16:53:37.876Z,7.70
2023-01-08T16:56:09.258Z,7.40
2023-01-08T16:58:51.409Z,7.40
2023-01-08T17:01:18.667Z,7.30
2023-01-08T17:03:48.036Z,7.30
2023-01-08T17:06:18.203Z,7.30
2023-01-08T17:08:45.166Z,7.30
2023-01-08T17:11:16.475Z,7.20
2023-01-08T17:14:09.053Z,7.20
2023-01-08T17:16:36.260Z,7.20
2023-01-08T17:19:05.730Z,7.20
2023-01-08T17:21:33.878Z,7.10
2023-01-08T17:24:03.764Z,7.00
2023-01-08T17:26:37.219Z,7.00
2023-01-08T17:29:04.273Z,7.00
2023-01-08T17:31:36.719Z,7.00
2023-01-08T17:34:03.702Z,7.00
2023-01-08T17:36:36.128Z,7.00
2023-01-08T17:39:03.402Z,7.00
2023-01-08T17:41:48.829Z,6.90
2023-01-08T17:44:15.969Z,6.90
2023-01-08T17:46:45.451Z,6.80
2023-01-08T17:49:15.075Z,6.90
2023-01-08T17:51:47.682Z,6.90
2023-01-08T17:54:17.547Z,6.90
2023-01-08T17:56:44.654Z,6.80
2023-01-08T17:59:18.375Z,6.80
2023-01-08T18:01:46.069Z,6.80
2023-01-08T18:04:14.587Z,6.80
2023-01-08T18:06:42.105Z,6.80
2023-01-08T18:09:12.067Z,6.80
2023-01-08T18:11:40.095Z,6.80
2023-01-08T18:14:07.319Z,6.70
2023-01-08T18:16:35.144Z,6.80
2023-01-08T18:19:02.249Z,6.70
2023-01-08T18:21:29.203Z,6.70
2023-01-08T18:23:56.508Z,6.70
2023-01-08T18:26:23.621Z,6.70
2023-01-08T18:28:52.346Z,6.70
2023-01-08T18:31:19.450Z,6.70
2023-01-08T18:33:55.925Z,6.60
2023-01-08T18:36:22.953Z,6.70
2023-01-08T18:38:49.886Z,6.60
2023-01-08T18:41:37.433Z,6.60
2023-01-08T18:44:06.089Z,6.60
2023-01-08T18:46:33.003Z,6.60
2023-01-08T18:48:59.968Z,6.60
2023-01-08T18:51:26.954Z,6.50
2023-01-08T18:54:14.006Z,6.60
2023-01-08T18:56:41.960Z,6.50
2023-01-08T18:59:10.533Z,6.40
2023-01-08T19:01:37.649Z,6.40
2023-01-08T19:04:04.959Z,6.40
2023-01-08T19:06:31.967Z,6.40
2023-01-08T19:09:32.133Z,6.40
2023-01-08T19:12:07.044Z,6.40
2023-01-08T19:14:42.536Z,6.40
2023-01-08T19:17:09.478Z,6.40
2023-01-08T19:19:43.573Z,6.70
2023-01-08T19:22:10.554Z,6.40
2023-01-08T19:24:37.513Z,6.40
2023-01-08T19:27:04.736Z,6.40
2023-01-08T19:29:31.589Z,6.40
2023-01-08T19:31:58.421Z,6.40
2023-01-08T19:34:25.497Z,6.40
2023-01-08T19:36:56.311Z,6.40
2023-01-08T19:39:23.217Z,6.40
2023-01-08T19:42:10.317Z,6.40
2023-01-08T19:44:38.238Z,6.40
2023-01-08T19:47:05.104Z,6.40
2023-01-08T19:49:32.025Z,6.40
2023-01-08T19:51:59.304Z,6.40
2023-01-08T19:54:27.660Z,6.40
2023-01-08T19:57:00.703Z,6.40
2023-01-08T19:59:27.913Z,6.40
2023-01-08T20:01:54.800Z,6.40
2023-01-08T20:04:39.390Z,6.40
2023-01-08T20:07:06.235Z,6.40
2023-01-08T20:12:33.685Z,6.30
2023-01-08T20:15:01.061Z,6.30
2023-01-08T20:17:27.931Z,6.30
2023-01-08T20:19:54.816Z,6.30
2023-01-08T20:22:26.744Z,6.30
2023-01-08T20:24:59.411Z,6.30
2023-01-08T20:27:26.317Z,6.20
2023-01-08T20:29:53.148Z,6.20
2023-01-08T20:32:22.691Z,6.20
2023-01-08T20:34:50.455Z,6.20
2023-01-08T20:37:17.341Z,6.20
2023-01-08T20:39:44.225Z,6.20
2023-01-08T20:45:06.526Z,6.20
2023-01-08T20:47:35.341Z,6.10
2023-01-08T20:50:07.121Z,6.20
2023-01-08T20:53:05.403Z,6.20
2023-01-08T20:55:50.110Z,6.20
2023-01-08T20:58:17.756Z,6.20
2023-01-08T21:00:44.834Z,6.20
2023-01-08T21:03:27.475Z,6.30
2023-01-08T21:05:58.726Z,6.20
2023-01-08T21:08:42.202Z,6.20
2023-01-08T21:11:11.093Z,6.20
2023-01-08T21:13:41.752Z,6.20
2023-01-08T21:16:30.060Z,6.20
2023-01-08T21:18:58.979Z,6.20
2023-01-08T21:21:39.050Z,6.30
2023-01-08T21:24:16.035Z,6.30
2023-01-08T21:26:45.191Z,6.30
2023-01-08T21:29:12.527Z,6.40
2023-01-08T21:31:41.801Z,6.40
2023-01-08T21:34:10.479Z,6.40
2023-01-08T21:36:39.269Z,6.50
2023-01-08T21:39:06.703Z,6.30
2023-01-08T21:41:52.703Z,6.30
2023-01-08T21:44:53.007Z,6.30
2023-01-08T21:47:20.480Z,6.30
2023-01-08T21:52:46.612Z,6.20
2023-01-08T21:55:17.567Z,6.20
2023-01-08T21:57:45.236Z,6.20
2023-01-08T22:00:14.213Z,6.20
2023-01-08T22:02:41.961Z,6.20
2023-01-08T22:05:09.146Z,6.20
2023-01-08T22:07:36.309Z,6.20
2023-01-08T22:10:11.447Z,6.20
2023-01-08T22:12:38.287Z,6.20
2023-01-08T22:15:05.641Z,6.10
2023-01-08T22:17:32.540Z,6.20
2023-01-08T22:20:01.227Z,6.20
2023-01-08T22:22:28.959Z,6.20
2023-01-08T22:24:56.995Z,6.20
2023-01-08T22:27:23.868Z,6.10
2023-01-08T22:29:50.792Z,6.20
2023-01-08T22:32:17.717Z,6.10
2023-01-08T22:34:44.566Z,6.10
2023-01-08T22:37:11.703Z,6.00
2023-01-08T22:39:38.565Z,6.10
2023-01-08T22:42:05.475Z,6.20
2023-01-08T22:44:32.363Z,6.00
2023-01-08T22:47:00.065Z,6.10
2023-01-08T22:49:26.931Z,6.00
2023-01-08T22:51:54.353Z,6.10
2023-01-08T22:54:21.275Z,6.00
2023-01-08T22:56:48.071Z,6.10
2023-01-08T22:59:14.942Z,6.10
2023-01-08T23:01:41.850Z,6.20
2023-01-08T23:04:09.474Z,6.30
2023-01-08T23:06:38.432Z,6.20
2023-01-08T23:09:05.337Z,6.20
2023-01-08T23:11:32.198Z,6.20
2023-01-08T23:14:00.797Z,6.40
2023-01-08T23:16:30.097Z,6.40
2023-01-08T23:19:05.768Z,6.40
2023-01-08T23:21:55.909Z,6.40
2023-01-08T23:24:22.703Z,6.40
2023-01-08T23:26:49.560Z,6.60
2023-01-08T23:29:16.388Z,6.40
2023-01-08T23:31:44.416Z,6.50
2023-01-08T23:34:11.930Z,6.50
2023-01-08T23:36:39.458Z,6.50
2023-01-08T23:39:06.671Z,6.60
2023-01-08T23:41:35.060Z,6.60
2023-01-08T23:44:05.332Z,6.60
2023-01-08T23:46:32.688Z,6.70
2023-01-08T23:48:59.547Z,6.60
2023-01-08T23:51:35.287Z,6.70
2023-01-08T23:54:06.866Z,6.70
2023-01-08T23:56:35.463Z,6.70
2023-01-08T23:59:03.221Z,6.80
